createdAt,value
2018-07-19T07:18:43.050Z,65.00
2018-07-19T07:19:14.172Z,65.70
2018-07-19T07:19:45.292Z,65.70
2018-07-19T07:20:16.417Z,66.90
2018-07-19T07:20:47.552Z,66.20
2018-07-19T07:21:18.762Z,66.60
2018-07-19T07:21:49.804Z,66.40
2018-07-19T07:22:20.970Z,66.20
2018-07-19T07:22:52.106Z,66.70
2018-07-19T07:23:23.236Z,66.70
2018-07-19T07:23:54.362Z,66.60
2018-07-19T07:24:25.482Z,66.70
2018-07-19T07:24:56.628Z,66.60
2018-07-19T07:25:27.764Z,66.70
2018-07-19T07:25:58.889Z,66.70
2018-07-19T07:26:30.215Z,66.70
2018-07-19T07:27:02.002Z,66.70
2018-07-19T07:27:33.148Z,66.70
2018-07-19T07:28:04.272Z,66.80
2018-07-19T07:28:35.396Z,66.70
2018-07-19T07:29:06.528Z,66.70
2018-07-19T07:29:37.684Z,66.80
2018-07-19T07:30:08.799Z,66.80
2018-07-19T07:30:40.279Z,66.80
2018-07-19T07:31:12.737Z,66.80
2018-07-19T07:31:43.919Z,66.80
2018-07-19T07:32:15.071Z,66.90
2018-07-19T07:32:46.212Z,67.00
2018-07-19T07:33:17.870Z,66.90
2018-07-19T07:33:49.247Z,66.90
2018-07-19T07:34:20.643Z,66.80
2018-07-19T07:34:51.778Z,66.90
2018-07-19T07:35:23.012Z,66.90
2018-07-19T07:35:54.480Z,66.90
2018-07-19T07:36:25.738Z,66.90
2018-07-19T07:36:56.940Z,67.00
2018-07-19T07:37:28.304Z,67.40
2018-07-19T07:37:59.880Z,66.90
2018-07-19T07:38:31.295Z,66.90
2018-07-19T07:39:02.482Z,66.90
2018-07-19T07:39:33.985Z,67.00
2018-07-19T07:40:05.321Z,67.00
2018-07-19T07:40:36.655Z,66.90
2018-07-19T07:41:07.800Z,66.90
2018-07-19T07:41:39.017Z,67.00
2018-07-19T07:42:10.145Z,66.90
2018-07-19T07:42:41.370Z,66.90
2018-07-19T07:43:12.507Z,67.10
2018-07-19T07:43:43.640Z,67.00
2018-07-19T07:44:14.771Z,67.00
2018-07-19T07:44:45.895Z,67.10
2018-07-19T07:45:17.041Z,67.10
2018-07-19T07:45:48.168Z,67.00
2018-07-19T07:46:19.303Z,67.00
2018-07-19T07:46:50.436Z,67.00
2018-07-19T07:47:21.618Z,67.00
2018-07-19T07:47:52.736Z,67.00
2018-07-19T07:48:23.861Z,67.00
2018-07-19T07:48:54.992Z,67.00
2018-07-19T07:49:26.109Z,67.00
2018-07-19T07:49:57.228Z,67.00
2018-07-19T07:50:28.360Z,67.00
2018-07-19T07:50:59.483Z,67.00
2018-07-19T07:51:30.612Z,67.00
2018-07-19T07:52:01.744Z,67.00
2018-07-19T07:52:33.104Z,67.10
2018-07-19T07:53:04.236Z,67.10
2018-07-19T07:53:35.368Z,67.10
2018-07-19T07:54:06.508Z,67.10
2018-07-19T07:54:37.687Z,67.20
2018-07-19T07:55:08.929Z,67.20
2018-07-19T07:55:40.056Z,67.10
2018-07-19T07:56:11.259Z,67.20
2018-07-19T07:56:42.594Z,67.10
2018-07-19T07:57:13.720Z,67.10
2018-07-19T07:57:45.046Z,67.10
2018-07-19T07:58:16.167Z,67.10
2018-07-19T07:59:18.864Z,67.20
2018-07-19T07:59:49.950Z,67.20
2018-07-19T08:00:21.120Z,67.20
2018-07-19T08:00:52.205Z,66.60
2018-07-19T08:01:23.339Z,67.20
2018-07-19T08:01:54.480Z,67.20
2018-07-19T08:02:25.674Z,68.00
2018-07-19T08:02:56.824Z,67.30
2018-07-19T08:03:27.952Z,67.20
2018-07-19T08:03:59.083Z,67.30
2018-07-19T08:04:30.216Z,67.20
2018-07-19T08:05:01.346Z,67.30
2018-07-19T08:05:32.472Z,67.30
2018-07-19T08:06:03.602Z,67.30
2018-07-19T08:06:34.727Z,67.30
2018-07-19T08:07:05.855Z,67.30
2018-07-19T08:07:37.013Z,67.30
2018-07-19T08:08:08.144Z,67.30
2018-07-19T08:08:39.276Z,67.30
2018-07-19T08:09:10.415Z,67.30
2018-07-19T08:09:41.549Z,67.30
2018-07-19T08:10:12.664Z,67.30
2018-07-19T08:11:15.333Z,67.40
2018-07-19T08:11:46.463Z,67.30
2018-07-19T08:12:17.573Z,67.50
2018-07-19T08:12:48.725Z,67.80
2018-07-19T08:13:19.852Z,67.70
2018-07-19T08:13:50.984Z,67.70
2018-07-19T08:14:22.188Z,67.70
2018-07-19T08:14:53.312Z,67.80
2018-07-19T08:15:24.443Z,68.00
2018-07-19T08:15:55.772Z,67.90
2018-07-19T08:16:26.832Z,67.70
2018-07-19T08:16:57.963Z,67.70
2018-07-19T08:17:29.212Z,67.80
2018-07-19T08:18:00.392Z,67.70
2018-07-19T08:18:31.881Z,67.80
2018-07-19T08:19:03.059Z,67.60
2018-07-19T08:19:34.192Z,67.60
2018-07-19T08:20:05.317Z,67.60
2018-07-19T08:20:36.451Z,67.60
2018-07-19T08:21:07.584Z,67.70
2018-07-19T08:21:38.711Z,67.70
2018-07-19T08:22:09.832Z,67.60
2018-07-19T08:22:41.005Z,67.60
2018-07-19T08:23:12.136Z,67.60
2018-07-19T08:23:43.260Z,67.90
2018-07-19T08:24:14.402Z,68.00
2018-07-19T08:24:45.520Z,67.70
2018-07-19T08:25:16.643Z,67.90
2018-07-19T08:25:47.759Z,67.70
2018-07-19T08:26:18.871Z,67.50
2018-07-19T08:26:50.012Z,67.80
2018-07-19T08:27:21.128Z,67.70
2018-07-19T08:27:52.276Z,67.90
2018-07-19T08:28:23.404Z,67.90
2018-07-19T08:28:54.533Z,68.00
2018-07-19T08:29:25.656Z,67.70
2018-07-19T08:29:56.792Z,67.70
2018-07-19T08:30:27.916Z,67.70
2018-07-19T08:30:59.044Z,67.80
2018-07-19T08:31:30.172Z,67.80
2018-07-19T08:32:01.296Z,67.70
2018-07-19T08:32:32.428Z,67.70
2018-07-19T08:33:03.579Z,67.60
2018-07-19T08:33:34.702Z,67.60
2018-07-19T08:34:05.832Z,67.50
2018-07-19T08:34:36.956Z,67.60
2018-07-19T08:35:08.089Z,67.60
2018-07-19T08:35:39.219Z,67.80
2018-07-19T08:36:10.373Z,67.70
2018-07-19T08:36:41.480Z,67.70
2018-07-19T08:37:12.613Z,67.70
2018-07-19T08:37:43.736Z,68.00
2018-07-19T08:38:14.888Z,67.90
2018-07-19T08:38:46.024Z,67.70
2018-07-19T08:39:17.152Z,67.90
2018-07-19T08:39:48.290Z,68.00
2018-07-19T08:40:19.416Z,68.00
2018-07-19T08:40:50.540Z,68.00
2018-07-19T08:41:21.675Z,67.90
2018-07-19T08:41:52.808Z,67.90
2018-07-19T08:42:23.924Z,67.80
2018-07-19T08:42:55.121Z,67.90
2018-07-19T08:43:26.240Z,67.90
2018-07-19T08:43:57.441Z,67.90
2018-07-19T08:44:28.576Z,67.90
2018-07-19T08:44:59.704Z,67.90
2018-07-19T08:45:30.822Z,67.90
2018-07-19T08:46:01.964Z,68.00
2018-07-19T08:46:33.088Z,68.00
2018-07-19T08:47:04.212Z,68.00
2018-07-19T08:47:35.340Z,68.00
2018-07-19T08:48:06.487Z,68.00
2018-07-19T08:48:37.621Z,68.00
2018-07-19T08:49:08.747Z,67.90
2018-07-19T08:49:39.881Z,67.90
2018-07-19T08:50:10.996Z,67.90
2018-07-19T08:50:42.120Z,67.90
2018-07-19T08:51:13.239Z,67.90
2018-07-19T08:51:44.373Z,67.90
2018-07-19T08:52:47.032Z,67.80
2018-07-19T08:53:18.194Z,67.70
2018-07-19T08:53:49.317Z,67.70
2018-07-19T08:54:20.435Z,67.70
2018-07-19T08:54:51.556Z,67.70
2018-07-19T08:55:22.680Z,67.70
2018-07-19T08:55:53.859Z,67.70
2018-07-19T08:56:24.964Z,67.60
2018-07-19T08:56:56.099Z,67.70
2018-07-19T08:57:27.227Z,67.70
2018-07-19T08:57:58.369Z,67.60
2018-07-19T08:58:29.504Z,67.50
2018-07-19T08:59:00.716Z,67.50
2018-07-19T08:59:31.843Z,67.60
2018-07-19T09:00:02.965Z,67.60
2018-07-19T09:00:34.108Z,67.60
2018-07-19T09:01:05.244Z,67.60
2018-07-19T09:01:36.379Z,67.70
2018-07-19T09:02:07.521Z,67.80
2018-07-19T09:02:38.649Z,67.80
2018-07-19T09:03:09.799Z,67.90
2018-07-19T09:03:40.936Z,67.80
2018-07-19T09:04:12.065Z,67.80
2018-07-19T09:04:43.189Z,67.80
2018-07-19T09:05:15.089Z,67.90
2018-07-19T09:05:46.280Z,67.90
2018-07-19T09:06:18.058Z,67.90
2018-07-19T09:06:49.347Z,68.00
2018-07-19T09:07:20.472Z,67.90
2018-07-19T09:07:51.604Z,67.90
2018-07-19T09:08:22.735Z,67.90
2018-07-19T09:08:53.860Z,67.90
2018-07-19T09:09:25.024Z,67.90
2018-07-19T09:09:56.120Z,67.90
2018-07-19T09:10:27.257Z,67.80
2018-07-19T09:10:58.375Z,67.90
2018-07-19T09:11:29.504Z,67.90
2018-07-19T09:12:00.660Z,68.00
2018-07-19T09:12:31.833Z,68.00
2018-07-19T09:13:02.951Z,68.20
2018-07-19T09:13:34.086Z,68.20
2018-07-19T09:14:05.231Z,68.40
2018-07-19T09:14:36.356Z,68.20
2018-07-19T09:15:07.484Z,68.20
2018-07-19T09:15:38.600Z,68.10
2018-07-19T09:16:09.731Z,68.10
2018-07-19T09:16:40.864Z,68.20
2018-07-19T09:17:11.992Z,68.10
2018-07-19T09:17:43.143Z,68.20
2018-07-19T09:18:14.260Z,68.20
2018-07-19T09:18:45.385Z,68.10
2018-07-19T09:19:16.516Z,68.20
2018-07-19T09:19:47.669Z,68.20
2018-07-19T09:20:18.779Z,68.20
2018-07-19T09:20:49.901Z,68.20
2018-07-19T09:21:21.028Z,68.20
2018-07-19T09:21:52.172Z,68.20
2018-07-19T09:22:23.304Z,68.30
2018-07-19T09:22:54.432Z,68.40
2018-07-19T09:23:25.590Z,68.40
2018-07-19T09:23:56.722Z,68.40
2018-07-19T09:24:27.856Z,68.40
2018-07-19T09:24:58.989Z,68.40
2018-07-19T09:25:30.117Z,68.50
2018-07-19T09:26:01.254Z,68.40
2018-07-19T09:26:32.408Z,68.40
2018-07-19T09:27:03.509Z,69.20
2018-07-19T09:27:34.640Z,68.40
2018-07-19T09:28:05.768Z,68.50
2018-07-19T09:28:36.917Z,68.60
2018-07-19T09:29:08.053Z,68.50
2018-07-19T09:29:39.184Z,68.60
2018-07-19T09:30:10.328Z,68.70
2018-07-19T09:30:41.452Z,68.60
2018-07-19T09:31:12.572Z,68.70
2018-07-19T09:31:43.713Z,68.70
2018-07-19T09:32:14.842Z,68.50
2018-07-19T09:32:45.972Z,68.50
2018-07-19T09:33:17.104Z,68.50
2018-07-19T09:33:48.257Z,68.50
2018-07-19T09:34:19.387Z,68.40
2018-07-19T09:34:50.640Z,68.60
2018-07-19T09:35:21.763Z,68.60
2018-07-19T09:35:52.896Z,68.60
2018-07-19T09:36:24.021Z,68.70
2018-07-19T09:36:55.140Z,68.70
2018-07-19T09:37:26.268Z,68.60
2018-07-19T09:37:57.402Z,68.60
2018-07-19T09:38:28.589Z,68.60
2018-07-19T09:38:59.696Z,68.70
2018-07-19T09:39:30.828Z,68.70
2018-07-19T09:40:01.956Z,68.70
2018-07-19T09:40:33.079Z,68.70
2018-07-19T09:41:04.257Z,68.70
2018-07-19T09:41:35.452Z,68.60
2018-07-19T09:42:38.152Z,69.10
2018-07-19T09:43:09.292Z,68.60
2018-07-19T09:43:40.441Z,68.60
2018-07-19T09:44:12.062Z,68.60
2018-07-19T09:44:43.223Z,68.70
2018-07-19T09:45:14.345Z,68.60
2018-07-19T09:45:45.476Z,68.70
2018-07-19T09:46:16.688Z,68.70
2018-07-19T09:46:47.936Z,68.60
2018-07-19T09:47:19.076Z,68.70
2018-07-19T09:47:50.196Z,68.60
2018-07-19T09:48:21.324Z,68.50
2018-07-19T09:48:52.495Z,68.50
2018-07-19T09:49:23.620Z,68.60
2018-07-19T09:49:54.740Z,68.50
2018-07-19T09:50:25.868Z,68.60
2018-07-19T09:50:57.004Z,68.70
2018-07-19T09:51:28.139Z,68.50
2018-07-19T09:51:59.268Z,68.50
2018-07-19T09:52:30.395Z,68.40
2018-07-19T09:53:01.525Z,69.00
2018-07-19T09:53:32.660Z,68.40
2018-07-19T09:54:03.807Z,68.40
2018-07-19T09:54:34.966Z,68.40
2018-07-19T09:55:06.082Z,68.40
2018-07-19T09:55:37.205Z,68.60
2018-07-19T09:56:08.327Z,68.50
2018-07-19T09:56:39.452Z,68.50
2018-07-19T09:57:10.588Z,68.50
2018-07-19T09:57:41.728Z,68.40
2018-07-19T09:58:12.851Z,69.00
2018-07-19T09:58:44.010Z,68.40
2018-07-19T09:59:15.135Z,68.50
2018-07-19T09:59:46.264Z,68.40
2018-07-19T10:00:17.403Z,68.40
2018-07-19T10:00:48.577Z,68.40
2018-07-19T10:01:19.702Z,68.50
2018-07-19T10:01:50.879Z,68.60
2018-07-19T10:02:21.997Z,68.70
2018-07-19T10:02:53.132Z,68.60
2018-07-19T10:03:24.261Z,68.50
2018-07-19T10:03:55.424Z,68.50
2018-07-19T10:04:26.552Z,69.20
2018-07-19T10:04:57.674Z,68.50
2018-07-19T10:05:28.800Z,68.40
2018-07-19T10:05:59.936Z,68.50
2018-07-19T10:06:31.068Z,68.50
2018-07-19T10:07:02.282Z,68.50
2018-07-19T10:07:33.420Z,68.50
2018-07-19T10:08:04.536Z,68.50
2018-07-19T10:08:35.667Z,68.50
2018-07-19T10:09:06.809Z,68.50
2018-07-19T10:09:37.930Z,68.50
2018-07-19T10:10:09.104Z,68.50
2018-07-19T10:10:40.196Z,68.60
2018-07-19T10:11:11.328Z,68.50
2018-07-19T10:11:42.444Z,68.50
2018-07-19T10:12:13.572Z,68.70
2018-07-19T10:12:44.710Z,68.70
2018-07-19T10:13:15.832Z,68.70
2018-07-19T10:13:47.011Z,68.50
2018-07-19T10:14:18.108Z,68.60
2018-07-19T10:14:49.241Z,69.40
2018-07-19T10:15:20.371Z,68.60
2018-07-19T10:15:51.492Z,68.50
2018-07-19T10:16:22.631Z,68.40
2018-07-19T10:16:53.763Z,68.40
2018-07-19T10:17:24.935Z,68.20
2018-07-19T10:17:56.020Z,68.00
2018-07-19T10:18:27.147Z,68.00
2018-07-19T10:18:58.300Z,67.90
2018-07-19T10:19:29.428Z,67.70
2018-07-19T10:20:00.544Z,67.50
2018-07-19T10:20:31.684Z,67.40
2018-07-19T10:21:02.784Z,67.30
2018-07-19T10:21:34.006Z,67.40
2018-07-19T10:22:05.304Z,67.00
2018-07-19T10:22:36.423Z,67.00
2018-07-19T10:23:07.548Z,67.10
2018-07-19T10:23:38.713Z,67.10
2018-07-19T10:24:09.848Z,67.10
2018-07-19T10:24:40.978Z,67.10
2018-07-19T10:25:12.128Z,67.10
2018-07-19T10:25:43.256Z,67.10
2018-07-19T10:26:14.384Z,67.10
2018-07-19T10:26:45.516Z,67.20
2018-07-19T10:27:16.636Z,67.10
2018-07-19T10:27:47.776Z,67.10
2018-07-19T10:28:18.895Z,67.10
2018-07-19T10:28:50.052Z,67.20
2018-07-19T10:29:21.260Z,67.10
2018-07-19T10:29:52.389Z,67.10
2018-07-19T10:30:23.508Z,67.20
2018-07-19T10:30:54.649Z,67.20
2018-07-19T10:31:25.884Z,67.20
2018-07-19T10:31:57.093Z,67.20
2018-07-19T10:32:28.291Z,67.20
2018-07-19T10:32:59.276Z,67.20
2018-07-19T10:33:30.410Z,67.20
2018-07-19T10:34:01.594Z,67.30
2018-07-19T10:34:32.714Z,67.30
2018-07-19T10:35:03.837Z,67.30
2018-07-19T10:35:34.971Z,67.30
2018-07-19T10:36:06.105Z,67.30
2018-07-19T10:36:37.228Z,67.40
2018-07-19T10:37:08.368Z,67.40
2018-07-19T10:37:39.509Z,67.40
2018-07-19T10:38:10.631Z,67.50
2018-07-19T10:38:41.769Z,67.50
2018-07-19T10:39:12.928Z,67.50
2018-07-19T10:39:44.053Z,67.60
2018-07-19T10:40:15.188Z,67.70
2018-07-19T10:40:46.317Z,67.50
2018-07-19T10:41:17.437Z,67.70
2018-07-19T10:41:48.553Z,68.80
2018-07-19T10:42:19.695Z,68.20
2018-07-19T10:42:50.824Z,68.20
2018-07-19T10:43:53.481Z,68.20
2018-07-19T10:44:24.739Z,68.10
2018-07-19T10:44:55.820Z,68.20
2018-07-19T10:45:26.944Z,68.20
2018-07-19T10:45:58.106Z,68.20
2018-07-19T10:46:29.191Z,68.20
2018-07-19T10:47:00.398Z,68.20
2018-07-19T10:47:31.532Z,68.20
2018-07-19T10:48:02.664Z,68.10
2018-07-19T10:48:33.794Z,68.10
2018-07-19T10:49:04.954Z,68.10
2018-07-19T10:49:36.088Z,68.10
2018-07-19T10:50:07.208Z,68.20
2018-07-19T10:50:38.317Z,68.20
2018-07-19T10:51:09.425Z,68.30
2018-07-19T10:51:40.547Z,68.30
2018-07-19T10:52:11.670Z,68.30
2018-07-19T10:52:42.784Z,68.40
2018-07-19T10:53:13.888Z,68.40
2018-07-19T10:53:45.036Z,68.40
2018-07-19T10:54:16.196Z,68.40
2018-07-19T10:54:47.316Z,68.40
2018-07-19T10:55:18.433Z,68.40
2018-07-19T10:55:49.548Z,68.40
2018-07-19T10:56:21.057Z,68.20
2018-07-19T10:56:52.172Z,67.80
2018-07-19T10:57:23.315Z,67.80
2018-07-19T10:57:54.426Z,68.00
2018-07-19T10:58:25.540Z,68.00
2018-07-19T10:58:56.661Z,67.80
2018-07-19T10:59:28.004Z,68.00
2018-07-19T11:00:30.796Z,68.40
2018-07-19T11:01:02.017Z,68.50
2018-07-19T11:01:33.228Z,68.50
2018-07-19T11:02:04.340Z,68.40
2018-07-19T11:02:35.451Z,68.30
2018-07-19T11:03:06.560Z,68.20
2018-07-19T11:03:37.680Z,68.40
2018-07-19T11:04:08.792Z,68.40
2018-07-19T11:04:39.933Z,68.20
2018-07-19T11:05:11.045Z,68.10
2018-07-19T11:05:42.162Z,68.20
2018-07-19T11:06:13.276Z,68.30
2018-07-19T11:06:44.394Z,68.30
2018-07-19T11:07:15.513Z,68.30
2018-07-19T11:07:46.913Z,68.30
2018-07-19T11:08:18.077Z,68.40
2018-07-19T11:08:49.196Z,68.50
2018-07-19T11:09:20.350Z,68.40
2018-07-19T11:09:51.513Z,68.40
2018-07-19T11:10:22.598Z,68.40
2018-07-19T11:10:53.720Z,68.70
2018-07-19T11:11:24.860Z,68.80
2018-07-19T11:11:55.976Z,68.90
2018-07-19T11:12:27.091Z,68.90
2018-07-19T11:12:58.200Z,69.00
2018-07-19T11:14:00.841Z,69.20
2018-07-19T11:14:31.975Z,69.10
2018-07-19T11:15:03.123Z,69.20
2018-07-19T11:15:34.249Z,70.00
2018-07-19T11:16:05.360Z,69.10
2018-07-19T11:16:36.488Z,69.10
2018-07-19T11:17:07.603Z,69.10
2018-07-19T11:17:38.711Z,69.20
2018-07-19T11:18:09.820Z,69.20
2018-07-19T11:18:40.998Z,69.20
2018-07-19T11:19:12.176Z,69.10
2018-07-19T11:19:43.389Z,69.10
2018-07-19T11:20:14.500Z,69.20
2018-07-19T11:20:45.608Z,69.20
2018-07-19T11:21:16.722Z,69.20
2018-07-19T11:21:47.831Z,69.20
2018-07-19T11:22:19.040Z,69.20
2018-07-19T11:22:50.224Z,69.20
2018-07-19T11:23:21.364Z,69.30
2018-07-19T11:23:52.477Z,69.40
2018-07-19T11:24:23.586Z,69.50
2018-07-19T11:24:54.701Z,69.50
2018-07-19T11:25:25.813Z,69.50
2018-07-19T11:26:28.434Z,69.50
2018-07-19T11:26:59.557Z,69.50
2018-07-19T11:27:30.672Z,69.60
2018-07-19T11:28:01.825Z,69.60
2018-07-19T11:28:32.937Z,69.60
2018-07-19T11:29:04.049Z,69.50
2018-07-19T11:29:35.165Z,69.50
2018-07-19T11:30:06.273Z,69.40
2018-07-19T11:30:37.380Z,69.40
2018-07-19T11:31:08.497Z,70.10
2018-07-19T11:31:39.609Z,69.30
2018-07-19T11:32:10.715Z,69.30
2018-07-19T11:32:41.828Z,69.30
2018-07-19T11:33:45.125Z,69.30
2018-07-19T11:34:16.399Z,69.20
2018-07-19T11:34:47.584Z,70.10
2018-07-19T11:35:18.744Z,69.20
2018-07-19T11:35:49.837Z,69.20
2018-07-19T11:36:20.968Z,69.20
2018-07-19T11:36:52.085Z,69.20
2018-07-19T11:37:23.200Z,69.20
2018-07-19T11:37:54.313Z,69.20
2018-07-19T11:38:25.420Z,69.20
2018-07-19T11:38:56.528Z,69.20
2018-07-19T11:39:27.673Z,69.20
2018-07-19T11:39:58.800Z,69.20
2018-07-19T11:40:30.212Z,69.20
2018-07-19T11:41:01.365Z,69.20
2018-07-19T11:41:32.484Z,69.20
2018-07-19T11:42:03.603Z,69.20
2018-07-19T11:42:34.768Z,69.20
2018-07-19T11:43:05.888Z,69.10
2018-07-19T11:43:37.007Z,69.10
2018-07-19T11:44:08.117Z,69.10
2018-07-19T11:44:39.556Z,69.10
2018-07-19T11:45:10.701Z,69.10
2018-07-19T11:45:41.810Z,69.20
2018-07-19T11:46:12.919Z,69.20
2018-07-19T11:46:44.033Z,69.20
2018-07-19T11:47:15.160Z,69.10
2018-07-19T11:47:46.288Z,69.10
2018-07-19T11:48:17.400Z,69.20
2018-07-19T11:48:48.512Z,69.10
2018-07-19T11:49:19.631Z,69.10
2018-07-19T11:49:50.853Z,69.20
2018-07-19T11:50:21.920Z,69.20
2018-07-19T11:50:53.027Z,69.20
2018-07-19T11:51:24.240Z,69.20
2018-07-19T11:51:55.384Z,69.10
2018-07-19T11:52:26.491Z,69.10
2018-07-19T11:52:57.599Z,69.20
2018-07-19T11:53:28.713Z,69.20
2018-07-19T11:53:59.838Z,69.10
2018-07-19T11:54:30.952Z,69.20
2018-07-19T11:55:02.090Z,69.20
2018-07-19T11:55:33.264Z,69.10
2018-07-19T11:56:04.336Z,69.10
2018-07-19T11:56:35.452Z,69.10
2018-07-19T11:57:06.569Z,69.10
2018-07-19T11:57:37.680Z,69.10
2018-07-19T11:58:08.801Z,69.10
2018-07-19T11:58:39.913Z,69.10
2018-07-19T11:59:11.024Z,69.10
2018-07-19T11:59:42.140Z,69.00
2018-07-19T12:00:13.271Z,69.00
2018-07-19T12:00:44.394Z,69.00
2018-07-19T12:01:15.528Z,69.00
2018-07-19T12:01:46.643Z,69.00
2018-07-19T12:02:17.772Z,69.00
2018-07-19T12:02:48.884Z,69.00
2018-07-19T12:03:19.992Z,69.10
2018-07-19T12:03:51.103Z,69.10
2018-07-19T12:04:22.215Z,69.10
2018-07-19T12:04:53.360Z,69.10
2018-07-19T12:05:24.476Z,69.10
2018-07-19T12:05:55.589Z,69.20
2018-07-19T12:06:26.734Z,69.30
2018-07-19T12:06:57.857Z,69.20
2018-07-19T12:07:28.972Z,69.50
2018-07-19T12:08:00.089Z,69.40
2018-07-19T12:08:31.200Z,69.50
2018-07-19T12:09:02.312Z,69.60
2018-07-19T12:09:33.428Z,69.30
2018-07-19T12:10:04.568Z,69.20
2018-07-19T12:10:35.689Z,69.20
2018-07-19T12:11:06.812Z,69.40
2018-07-19T12:11:37.920Z,69.40
2018-07-19T12:12:09.119Z,69.40
2018-07-19T12:12:40.232Z,69.40
2018-07-19T12:13:11.347Z,69.50
2018-07-19T12:13:42.465Z,69.70
2018-07-19T12:14:13.662Z,69.60
2018-07-19T12:14:44.747Z,69.50
2018-07-19T12:15:15.884Z,69.70
2018-07-19T12:15:47.000Z,69.80
2018-07-19T12:16:18.109Z,69.80
2018-07-19T12:16:49.226Z,69.80
2018-07-19T12:17:20.365Z,69.80
2018-07-19T12:17:51.480Z,69.80
2018-07-19T12:18:22.592Z,69.80
2018-07-19T12:18:53.802Z,69.50
2018-07-19T12:19:24.948Z,69.70
2018-07-19T12:19:56.064Z,69.60
2018-07-19T12:20:58.729Z,69.40
2018-07-19T12:21:29.840Z,69.40
2018-07-19T12:22:00.967Z,69.20
2018-07-19T12:22:32.073Z,69.10
2018-07-19T12:23:03.182Z,69.20
2018-07-19T12:23:34.288Z,69.20
2018-07-19T12:24:05.404Z,69.20
2018-07-19T12:24:36.515Z,70.10
2018-07-19T12:25:07.643Z,69.40
2018-07-19T12:25:38.753Z,69.30
2018-07-19T12:26:09.872Z,69.40
2018-07-19T12:26:40.992Z,69.40
2018-07-19T12:27:12.102Z,69.20
2018-07-19T12:27:43.212Z,69.30
2018-07-19T12:28:14.329Z,69.20
2018-07-19T12:28:45.444Z,69.10
2018-07-19T12:29:16.560Z,69.10
2018-07-19T12:29:47.676Z,69.10
2018-07-19T12:30:18.816Z,69.20
2018-07-19T12:30:49.931Z,69.20
2018-07-19T12:31:21.116Z,69.20
2018-07-19T12:31:52.171Z,69.20
2018-07-19T12:32:23.284Z,69.20
2018-07-19T12:32:54.407Z,69.10
2018-07-19T12:33:25.540Z,69.10
2018-07-19T12:33:56.648Z,69.10
2018-07-19T12:34:27.764Z,69.10
2018-07-19T12:34:58.876Z,69.10
2018-07-19T12:35:30.460Z,69.10
2018-07-19T12:36:01.572Z,69.10
2018-07-19T12:36:32.679Z,69.10
2018-07-19T12:37:03.788Z,69.10
2018-07-19T12:37:34.903Z,69.10
2018-07-19T12:38:06.017Z,69.10
2018-07-19T12:38:37.133Z,69.10
2018-07-19T12:39:08.240Z,69.10
2018-07-19T12:39:39.356Z,69.10
2018-07-19T12:40:10.629Z,69.10
2018-07-19T12:40:41.739Z,69.10
2018-07-19T12:41:12.848Z,69.20
2018-07-19T12:41:43.964Z,69.10
2018-07-19T12:42:15.076Z,69.20
2018-07-19T12:42:46.193Z,69.20
2018-07-19T12:43:17.309Z,69.20
2018-07-19T12:43:48.444Z,69.20
2018-07-19T12:44:19.568Z,69.20
2018-07-19T12:44:50.678Z,69.80
2018-07-19T12:45:21.812Z,69.70
2018-07-19T12:45:52.924Z,69.00
2018-07-19T12:46:24.042Z,69.10
2018-07-19T12:46:55.160Z,69.10
2018-07-19T12:47:26.274Z,69.10
2018-07-19T12:47:57.388Z,69.10
2018-07-19T12:48:28.504Z,69.10
2018-07-19T12:48:59.677Z,69.10
2018-07-19T12:49:30.757Z,69.00
2018-07-19T12:50:33.413Z,69.00
2018-07-19T12:51:04.530Z,69.00
2018-07-19T12:51:35.636Z,69.00
2018-07-19T12:52:06.780Z,69.00
2018-07-19T12:52:37.952Z,69.00
2018-07-19T12:53:09.061Z,69.00
2018-07-19T12:53:40.179Z,69.00
2018-07-19T12:54:11.292Z,69.50
2018-07-19T12:54:42.408Z,69.10
2018-07-19T12:55:13.519Z,69.00
2018-07-19T12:55:44.654Z,69.80
2018-07-19T12:56:15.760Z,69.00
2018-07-19T12:56:46.872Z,69.00
2018-07-19T12:57:17.986Z,69.00
2018-07-19T12:57:49.148Z,69.10
2018-07-19T12:58:20.230Z,69.10
2018-07-19T12:58:51.339Z,69.10
2018-07-19T12:59:22.460Z,69.00
2018-07-19T12:59:53.571Z,69.00
2018-07-19T13:00:24.708Z,69.00
2018-07-19T13:00:55.829Z,69.00
2018-07-19T13:01:26.944Z,69.00
2018-07-19T13:01:58.056Z,69.00
2018-07-19T13:02:29.166Z,69.00
2018-07-19T13:03:00.281Z,68.90
2018-07-19T13:03:31.392Z,68.90
2018-07-19T13:04:02.508Z,68.90
2018-07-19T13:04:33.617Z,68.80
2018-07-19T13:05:04.737Z,68.80
2018-07-19T13:05:35.880Z,68.80
2018-07-19T13:06:06.994Z,68.80
2018-07-19T13:06:38.108Z,68.80
2018-07-19T13:07:09.221Z,68.80
2018-07-19T13:07:40.328Z,68.80
2018-07-19T13:08:11.432Z,68.80
2018-07-19T13:08:42.549Z,68.80
2018-07-19T13:09:13.665Z,68.80
2018-07-19T13:09:44.772Z,68.80
2018-07-19T13:10:15.880Z,68.80
2018-07-19T13:10:47.029Z,68.80
2018-07-19T13:11:18.148Z,68.80
2018-07-19T13:11:49.273Z,68.80
2018-07-19T13:12:20.384Z,68.80
2018-07-19T13:12:51.496Z,68.80
2018-07-19T13:13:22.604Z,68.80
2018-07-19T13:13:53.716Z,68.80
2018-07-19T13:14:24.824Z,69.40
2018-07-19T13:14:55.937Z,68.80
2018-07-19T13:15:27.080Z,68.80
2018-07-19T13:15:58.219Z,68.80
2018-07-19T13:16:29.337Z,68.80
2018-07-19T13:17:00.444Z,68.80
2018-07-19T13:17:31.559Z,68.80
2018-07-19T13:18:34.202Z,68.80
2018-07-19T13:19:05.308Z,68.80
2018-07-19T13:19:36.416Z,69.40
2018-07-19T13:20:07.529Z,68.80
2018-07-19T13:20:38.669Z,68.80
2018-07-19T13:21:09.780Z,68.80
2018-07-19T13:21:40.898Z,68.80
2018-07-19T13:22:12.058Z,68.80
2018-07-19T13:22:43.138Z,68.80
2018-07-19T13:23:14.244Z,68.80
2018-07-19T13:23:45.352Z,68.30
2018-07-19T13:24:16.470Z,68.80
2018-07-19T13:24:47.581Z,68.80
2018-07-19T13:25:18.691Z,68.70
2018-07-19T13:25:49.827Z,68.70
2018-07-19T13:26:20.971Z,68.70
2018-07-19T13:26:52.088Z,68.70
2018-07-19T13:27:23.196Z,68.70
2018-07-19T13:27:54.308Z,68.70
2018-07-19T13:28:25.420Z,68.70
2018-07-19T13:28:56.537Z,68.70
2018-07-19T13:29:27.649Z,68.70
2018-07-19T13:29:58.757Z,68.70
2018-07-19T13:30:29.871Z,68.70
2018-07-19T13:31:01.039Z,68.70
2018-07-19T13:31:32.113Z,68.70
2018-07-19T13:32:03.232Z,68.70
2018-07-19T13:32:34.340Z,68.70
2018-07-19T13:33:05.452Z,68.70
2018-07-19T13:33:36.568Z,68.70
2018-07-19T13:34:07.685Z,68.50
2018-07-19T13:34:38.798Z,68.50
2018-07-19T13:35:09.904Z,68.90
2018-07-19T13:35:41.044Z,68.50
2018-07-19T13:36:12.161Z,68.50
2018-07-19T13:36:43.365Z,68.10
2018-07-19T13:37:14.408Z,67.90
2018-07-19T13:37:45.524Z,67.90
2018-07-19T13:38:16.640Z,67.90
2018-07-19T13:39:19.252Z,68.20
2018-07-19T13:39:50.364Z,68.30
2018-07-19T13:40:21.477Z,68.40
2018-07-19T13:40:52.584Z,68.40
2018-07-19T13:41:23.695Z,68.40
2018-07-19T13:41:54.806Z,68.40
2018-07-19T13:42:25.928Z,68.50
2018-07-19T13:42:57.039Z,68.40
2018-07-19T13:43:28.162Z,68.40
2018-07-19T13:43:59.280Z,68.40
2018-07-19T13:44:30.396Z,68.40
2018-07-19T13:45:01.511Z,68.50
2018-07-19T13:46:04.193Z,68.40
2018-07-19T13:46:35.307Z,68.50
2018-07-19T13:47:06.427Z,68.40
2018-07-19T13:47:37.543Z,68.20
2018-07-19T13:48:08.656Z,68.30
2018-07-19T13:48:39.759Z,68.50
2018-07-19T13:49:10.877Z,68.60
2018-07-19T13:49:41.995Z,68.40
2018-07-19T13:50:13.104Z,69.20
2018-07-19T13:50:44.253Z,68.40
2018-07-19T13:51:15.369Z,68.40
2018-07-19T13:51:46.480Z,68.40
2018-07-19T13:52:17.593Z,68.90
2018-07-19T13:52:48.703Z,68.40
2018-07-19T13:53:19.811Z,68.40
2018-07-19T13:53:50.923Z,68.40
2018-07-19T13:54:22.037Z,68.30
2018-07-19T13:54:53.148Z,68.30
2018-07-19T13:55:24.256Z,68.50
2018-07-19T13:55:55.408Z,68.50
2018-07-19T13:56:26.519Z,68.60
2018-07-19T13:56:57.627Z,68.50
2018-07-19T13:57:28.735Z,68.40
2018-07-19T13:57:59.852Z,68.50
2018-07-19T13:58:30.964Z,68.40
2018-07-19T13:59:02.072Z,68.40
2018-07-19T13:59:33.229Z,68.50
2018-07-19T14:00:04.345Z,68.50
2018-07-19T14:00:35.460Z,68.50
2018-07-19T14:01:06.572Z,68.50
2018-07-19T14:01:37.680Z,68.50
2018-07-19T14:02:08.792Z,68.50
2018-07-19T14:02:39.941Z,68.50
2018-07-19T14:03:11.035Z,68.50
2018-07-19T14:03:42.150Z,68.40
2018-07-19T14:04:13.265Z,68.40
2018-07-19T14:04:44.376Z,68.30
2018-07-19T14:05:15.489Z,68.20
2018-07-19T14:05:46.601Z,68.20
2018-07-19T14:06:49.260Z,68.00
2018-07-19T14:07:20.372Z,67.90